<?xml version="1.0" encoding="UTF-8" standalone="no" ?>
<gpx xmlns="http://www.topografix.com/GPX/1/1" xmlns:xsi="http://www.w3.org/2001/XMLSchema-instance" xsi:schemaLocation="http://www.topografix.com/GPX/1/1 http://www.topografix.com/GPX/1/1/gpx.xsd" version="1.1" creator="VisuGPX - https://www.visugpx.com">
  <metadata>
    <name>cabanes de voya</name>
    <desc><![CDATA[randonnée raquette]]></desc>
  </metadata>
  <trk>
    <name><![CDATA[--Saint-Martin-d'Entraunes-- OR-5832992:CABANS DE VOYA]]></name>
    <trkseg>
      <trkpt lat="44.15434" lon="6.7315">
        <ele>1602</ele>
        <time>2016-03-16T14:35:10Z</time>
      </trkpt>
      <trkpt lat="44.15535" lon="6.73098">
        <ele>1608</ele>
        <time>2016-03-16T14:37:10Z</time>
      </trkpt>
      <trkpt lat="44.15591" lon="6.73109">
        <ele>1606</ele>
        <time>2016-03-16T14:39:10Z</time>
      </trkpt>
      <trkpt lat="44.15636" lon="6.73067">
        <ele>1622</ele>
        <time>2016-03-16T14:41:10Z</time>
      </trkpt>
      <trkpt lat="44.15729" lon="6.73067">
        <ele>1616</ele>
        <time>2016-03-16T14:43:10Z</time>
      </trkpt>
      <trkpt lat="44.15788" lon="6.7303">
        <ele>1626</ele>
        <time>2016-03-16T14:45:10Z</time>
      </trkpt>
      <trkpt lat="44.15852" lon="6.73067">
        <ele>1620</ele>
        <time>2016-03-16T14:47:10Z</time>
      </trkpt>
      <trkpt lat="44.15897" lon="6.73061">
        <ele>1626</ele>
        <time>2016-03-16T14:49:10Z</time>
      </trkpt>
      <trkpt lat="44.15953" lon="6.73081">
        <ele>1629</ele>
        <time>2016-03-16T14:51:10Z</time>
      </trkpt>
      <trkpt lat="44.16017" lon="6.73129">
        <ele>1624</ele>
        <time>2016-03-16T14:53:10Z</time>
      </trkpt>
      <trkpt lat="44.16086" lon="6.73064">
        <ele>1613</ele>
        <time>2016-03-16T14:55:10Z</time>
      </trkpt>
      <trkpt lat="44.16072" lon="6.72872">
        <ele>1630</ele>
        <time>2016-03-16T14:57:10Z</time>
      </trkpt>
      <trkpt lat="44.16084" lon="6.727">
        <ele>1647</ele>
        <time>2016-03-16T14:59:10Z</time>
      </trkpt>
      <trkpt lat="44.1621" lon="6.72611">
        <ele>1638</ele>
        <time>2016-03-16T15:01:10Z</time>
      </trkpt>
      <trkpt lat="44.16261" lon="6.72408">
        <ele>1641</ele>
        <time>2016-03-16T15:03:10Z</time>
      </trkpt>
      <trkpt lat="44.16283" lon="6.72182">
        <ele>1659</ele>
        <time>2016-03-16T15:05:10Z</time>
      </trkpt>
      <trkpt lat="44.16311" lon="6.72044">
        <ele>1681</ele>
        <time>2016-03-16T15:07:10Z</time>
      </trkpt>
      <trkpt lat="44.16345" lon="6.71921">
        <ele>1704</ele>
        <time>2016-03-16T15:09:10Z</time>
      </trkpt>
      <trkpt lat="44.16421" lon="6.71821">
        <ele>1730</ele>
        <time>2016-03-16T15:11:10Z</time>
      </trkpt>
      <trkpt lat="44.16473" lon="6.71704">
        <ele>1761</ele>
        <time>2016-03-16T15:13:10Z</time>
      </trkpt>
      <trkpt lat="44.16485" lon="6.7155">
        <ele>1796</ele>
        <time>2016-03-16T15:15:10Z</time>
      </trkpt>
      <trkpt lat="44.16527" lon="6.71461">
        <ele>1826</ele>
        <time>2016-03-16T15:17:10Z</time>
      </trkpt>
      <trkpt lat="44.16557" lon="6.71347">
        <ele>1851</ele>
        <time>2016-03-16T15:19:10Z</time>
      </trkpt>
      <trkpt lat="44.16591" lon="6.71224">
        <ele>1881</ele>
        <time>2016-03-16T15:21:10Z</time>
      </trkpt>
      <trkpt lat="44.16621" lon="6.71083">
        <ele>1899</ele>
        <time>2016-03-16T15:23:10Z</time>
      </trkpt>
      <trkpt lat="44.16697" lon="6.70904">
        <ele>1932</ele>
        <time>2016-03-16T15:25:10Z</time>
      </trkpt>
      <trkpt lat="44.16752" lon="6.70801">
        <ele>1954</ele>
        <time>2016-03-16T15:27:10Z</time>
      </trkpt>
      <trkpt lat="44.16812" lon="6.70627">
        <ele>1981</ele>
        <time>2016-03-16T15:29:10Z</time>
      </trkpt>
      <trkpt lat="44.16901" lon="6.70565">
        <ele>2011</ele>
        <time>2016-03-16T15:31:10Z</time>
      </trkpt>
      <trkpt lat="44.17002" lon="6.70579">
        <ele>2041</ele>
        <time>2016-03-16T15:33:10Z</time>
      </trkpt>
      <trkpt lat="44.17022" lon="6.70747">
        <ele>2065</ele>
        <time>2016-03-16T15:35:10Z</time>
      </trkpt>
      <trkpt lat="44.17003" lon="6.7058">
        <ele>2042</ele>
        <time>2016-03-16T15:37:10Z</time>
      </trkpt>
      <trkpt lat="44.16902" lon="6.70566">
        <ele>2011</ele>
        <time>2016-03-16T15:39:10Z</time>
      </trkpt>
      <trkpt lat="44.16813" lon="6.70628">
        <ele>1982</ele>
        <time>2016-03-16T15:41:10Z</time>
      </trkpt>
      <trkpt lat="44.16753" lon="6.70802">
        <ele>1955</ele>
        <time>2016-03-16T15:43:10Z</time>
      </trkpt>
      <trkpt lat="44.16698" lon="6.70905">
        <ele>1933</ele>
        <time>2016-03-16T15:45:10Z</time>
      </trkpt>
      <trkpt lat="44.16622" lon="6.71084">
        <ele>1899</ele>
        <time>2016-03-16T15:47:10Z</time>
      </trkpt>
      <trkpt lat="44.16592" lon="6.71225">
        <ele>1881</ele>
        <time>2016-03-16T15:49:10Z</time>
      </trkpt>
      <trkpt lat="44.16558" lon="6.71348">
        <ele>1851</ele>
        <time>2016-03-16T15:51:10Z</time>
      </trkpt>
      <trkpt lat="44.16528" lon="6.71462">
        <ele>1826</ele>
        <time>2016-03-16T15:53:10Z</time>
      </trkpt>
      <trkpt lat="44.16486" lon="6.71551">
        <ele>1796</ele>
        <time>2016-03-16T15:55:10Z</time>
      </trkpt>
      <trkpt lat="44.16474" lon="6.71705">
        <ele>1761</ele>
        <time>2016-03-16T15:57:10Z</time>
      </trkpt>
      <trkpt lat="44.16422" lon="6.71822">
        <ele>1730</ele>
        <time>2016-03-16T15:59:10Z</time>
      </trkpt>
      <trkpt lat="44.16346" lon="6.71922">
        <ele>1704</ele>
        <time>2016-03-16T16:01:10Z</time>
      </trkpt>
      <trkpt lat="44.16312" lon="6.72045">
        <ele>1681</ele>
        <time>2016-03-16T16:03:10Z</time>
      </trkpt>
      <trkpt lat="44.16284" lon="6.72183">
        <ele>1659</ele>
        <time>2016-03-16T16:05:10Z</time>
      </trkpt>
      <trkpt lat="44.16262" lon="6.72409">
        <ele>1641</ele>
        <time>2016-03-16T16:07:10Z</time>
      </trkpt>
      <trkpt lat="44.16211" lon="6.72612">
        <ele>1637</ele>
        <time>2016-03-16T16:09:10Z</time>
      </trkpt>
      <trkpt lat="44.16085" lon="6.72701">
        <ele>1646</ele>
        <time>2016-03-16T16:11:10Z</time>
      </trkpt>
      <trkpt lat="44.16073" lon="6.72873">
        <ele>1629</ele>
        <time>2016-03-16T16:13:10Z</time>
      </trkpt>
      <trkpt lat="44.16087" lon="6.73065">
        <ele>1613</ele>
        <time>2016-03-16T16:15:10Z</time>
      </trkpt>
      <trkpt lat="44.16018" lon="6.7313">
        <ele>1623</ele>
        <time>2016-03-16T16:17:10Z</time>
      </trkpt>
      <trkpt lat="44.15954" lon="6.73082">
        <ele>1629</ele>
        <time>2016-03-16T16:19:10Z</time>
      </trkpt>
      <trkpt lat="44.15898" lon="6.73062">
        <ele>1626</ele>
        <time>2016-03-16T16:21:10Z</time>
      </trkpt>
      <trkpt lat="44.15853" lon="6.73068">
        <ele>1620</ele>
        <time>2016-03-16T16:23:10Z</time>
      </trkpt>
      <trkpt lat="44.15789" lon="6.73031">
        <ele>1625</ele>
        <time>2016-03-16T16:25:10Z</time>
      </trkpt>
      <trkpt lat="44.1573" lon="6.73068">
        <ele>1616</ele>
        <time>2016-03-16T16:27:10Z</time>
      </trkpt>
      <trkpt lat="44.15637" lon="6.73068">
        <ele>1621</ele>
        <time>2016-03-16T16:29:10Z</time>
      </trkpt>
      <trkpt lat="44.15592" lon="6.7311">
        <ele>1606</ele>
        <time>2016-03-16T16:31:10Z</time>
      </trkpt>
      <trkpt lat="44.15536" lon="6.73099">
        <ele>1608</ele>
        <time>2016-03-16T16:33:10Z</time>
      </trkpt>
      <trkpt lat="44.15435" lon="6.73151">
        <ele>1602</ele>
        <time>2016-03-16T16:35:10Z</time>
      </trkpt>
    </trkseg>
  </trk>
</gpx>